Hanahan, South Carolina
Current Conditions -  °F | °C
As of 12:08 PM on Wednesday 26 Nov 2014 (Local Time) from KCHS Reporting Station
Broken Clouds Broken Clouds  
Wind Chill: 54°   Ceiling: 900
Heat Index: 54°   Visibility: 10mi
Dew Point: 50°   Wind: 14mph
Humidity: 88%   Direction: 310°NW
Pressure: 30"   Gusts: NA
Location:  32.9116°N, 80.0017°W
Report Text: KCHS 261708Z 31012KT 10SM BKN009 BKN038 BKN055 12/10 A3000 RMK AO2
Loading
Personal Weather Stations






























Interactive Weather Map New forecast layout! Learn more

10-Day Weather Forecast

Advertisements
Track Severe Weather on mobile